createdAt,value
2024-01-06T00:00:40.021Z,161.00
2024-01-06T00:01:43.170Z,160.33
2024-01-06T00:02:46.449Z,159.67
2024-01-06T00:03:49.607Z,159.00
2024-01-06T00:04:52.662Z,158.50
2024-01-06T00:05:55.750Z,158.00
2024-01-06T00:06:58.826Z,158.00
2024-01-06T00:08:01.851Z,158.00
2024-01-06T00:09:04.864Z,158.00
2024-01-06T00:10:08.578Z,158.00
2024-01-06T00:11:11.876Z,158.00
2024-01-06T00:12:14.889Z,157.67
2024-01-06T00:13:17.941Z,158.00
2024-01-06T00:14:20.955Z,158.00
2024-01-06T00:15:23.973Z,158.00
2024-01-06T00:16:29.570Z,158.00
2024-01-06T00:17:33.002Z,158.00
2024-01-06T00:18:36.093Z,158.00
2024-01-06T00:19:39.573Z,157.00
2024-01-06T00:20:42.637Z,158.17
2024-01-06T00:21:45.779Z,159.67
2024-01-06T00:22:48.829Z,159.83
2024-01-06T00:23:51.907Z,159.00
2024-01-06T00:24:54.916Z,158.67
2024-01-06T00:25:58.204Z,157.67
2024-01-06T00:27:01.205Z,156.67
2024-01-06T00:28:04.389Z,155.50
2024-01-06T00:29:07.399Z,155.00
2024-01-06T00:30:10.971Z,155.00
2024-01-06T00:31:14.137Z,155.00
2024-01-06T00:32:17.270Z,155.00
2024-01-06T00:33:20.434Z,155.00
2024-01-06T00:34:23.707Z,155.50
2024-01-06T00:35:26.831Z,155.67
2024-01-06T00:36:29.881Z,155.00
2024-01-06T00:37:32.944Z,155.00
2024-01-06T00:38:36.357Z,154.00
2024-01-06T00:39:39.382Z,153.00
2024-01-06T00:40:42.450Z,152.50
2024-01-06T00:41:45.444Z,150.83
2024-01-06T00:42:48.457Z,150.00
2024-01-06T00:43:51.451Z,150.00
2024-01-06T00:44:54.436Z,149.50
2024-01-06T00:45:57.466Z,149.00
2024-01-06T00:47:00.572Z,148.17
2024-01-06T00:48:03.805Z,148.00
2024-01-06T00:49:06.967Z,147.50
2024-01-06T00:50:10.188Z,147.00
2024-01-06T00:51:13.244Z,147.00
2024-01-06T00:52:16.244Z,147.00
2024-01-06T00:53:19.232Z,147.00
2024-01-06T00:54:22.242Z,147.00
2024-01-06T00:55:25.564Z,147.00
2024-01-06T00:56:28.587Z,147.00
2024-01-06T00:57:31.640Z,146.17
2024-01-06T00:58:34.674Z,145.67
2024-01-06T00:59:37.653Z,144.83
2024-01-06T01:00:41.334Z,144.00
2024-01-06T01:01:44.452Z,143.67
2024-01-06T01:02:47.478Z,143.00
2024-01-06T01:03:50.539Z,143.00
2024-01-06T01:04:54.529Z,142.33
2024-01-06T01:05:57.804Z,141.67
2024-01-06T01:07:00.837Z,141.00
2024-01-06T01:08:03.997Z,141.00
2024-01-06T01:09:07.025Z,141.00
2024-01-06T01:10:11.061Z,141.33
2024-01-06T01:11:14.105Z,143.17
2024-01-06T01:12:17.282Z,146.67
2024-01-06T01:13:20.327Z,147.67
2024-01-06T01:14:23.909Z,148.00
2024-01-06T01:15:26.899Z,147.00
2024-01-06T01:16:30.090Z,146.00
2024-01-06T01:17:33.141Z,145.00
2024-01-06T01:18:36.239Z,145.00
2024-01-06T01:19:39.396Z,147.00
2024-01-06T01:20:44.917Z,150.83
2024-01-06T01:21:48.016Z,154.17
2024-01-06T01:22:51.047Z,157.50
2024-01-06T01:23:54.040Z,160.50
2024-01-06T01:24:57.097Z,159.83
2024-01-06T01:26:00.115Z,158.33
2024-01-06T01:27:03.179Z,156.00
2024-01-06T01:28:06.463Z,152.17
2024-01-06T01:29:09.451Z,146.67
2024-01-06T01:30:13.247Z,144.17
2024-01-06T01:31:16.570Z,143.33
2024-01-06T01:32:20.296Z,142.50
2024-01-06T01:33:23.605Z,142.00
2024-01-06T01:34:26.777Z,149.00
2024-01-06T01:35:29.842Z,162.00
2024-01-06T01:36:32.842Z,158.83
2024-01-06T01:37:35.933Z,156.00
2024-01-06T01:38:38.926Z,154.33
2024-01-06T01:39:41.970Z,152.67
2024-01-06T01:40:44.983Z,150.17
2024-01-06T01:41:47.994Z,147.33
2024-01-06T01:42:50.991Z,146.00
2024-01-06T01:43:59.410Z,145.00
2024-01-06T01:45:02.551Z,145.00
2024-01-06T01:46:05.881Z,144.33
2024-01-06T01:47:08.997Z,143.50
2024-01-06T01:48:12.368Z,141.83
2024-01-06T01:49:16.099Z,140.17
2024-01-06T01:50:21.344Z,140.50
2024-01-06T01:51:28.953Z,140.83
2024-01-06T01:52:31.984Z,141.00
2024-01-06T01:53:35.037Z,141.00
2024-01-06T01:54:38.214Z,141.00
2024-01-06T01:55:43.538Z,139.33
2024-01-06T01:56:46.944Z,137.17
2024-01-06T01:57:50.257Z,135.83
2024-01-06T01:58:53.712Z,135.50
2024-01-06T01:59:56.901Z,137.33
2024-01-06T02:01:00.048Z,138.00
2024-01-06T02:02:03.804Z,138.00
2024-01-06T02:03:07.160Z,138.00
2024-01-06T02:04:11.107Z,137.17
2024-01-06T02:05:14.217Z,136.67
2024-01-06T02:06:17.278Z,136.50
2024-01-06T02:07:20.369Z,135.67
2024-01-06T02:08:24.154Z,133.83
2024-01-06T02:09:30.657Z,131.50
2024-01-06T02:10:33.802Z,129.33
2024-01-06T02:11:36.801Z,127.50
2024-01-06T02:12:39.890Z,126.83
2024-01-06T02:13:42.879Z,127.00
2024-01-06T02:14:45.881Z,127.00
2024-01-06T02:15:48.948Z,127.00
2024-01-06T02:16:51.931Z,127.00
2024-01-06T02:17:55.039Z,127.00
2024-01-06T02:18:59.575Z,127.00
2024-01-06T02:20:02.775Z,127.83
2024-01-06T02:21:08.584Z,128.00
2024-01-06T02:22:11.628Z,129.00
2024-01-06T02:23:14.619Z,130.00
2024-01-06T02:24:17.750Z,137.83
2024-01-06T02:25:20.860Z,139.67
2024-01-06T02:26:23.876Z,139.00
2024-01-06T02:27:27.278Z,138.50
2024-01-06T02:28:30.310Z,137.83
2024-01-06T02:29:33.316Z,136.67
2024-01-06T02:30:36.374Z,134.83
2024-01-06T02:31:39.454Z,133.67
2024-01-06T02:32:42.527Z,132.67
2024-01-06T02:33:45.576Z,131.33
2024-01-06T02:34:48.716Z,130.67
2024-01-06T02:35:52.120Z,129.50
2024-01-06T02:36:55.224Z,128.33
2024-01-06T02:37:58.241Z,127.17
2024-01-06T02:39:01.241Z,126.67
2024-01-06T02:40:04.786Z,126.00
2024-01-06T02:41:07.764Z,126.00
2024-01-06T02:42:10.792Z,125.17
2024-01-06T02:43:13.877Z,123.83
2024-01-06T02:44:16.868Z,123.00
2024-01-06T02:45:19.884Z,122.33
2024-01-06T02:46:22.939Z,121.50
2024-01-06T02:47:25.940Z,121.00
2024-01-06T02:48:31.903Z,120.83
2024-01-06T02:49:35.102Z,120.00
2024-01-06T02:50:38.118Z,120.00
2024-01-06T02:51:41.120Z,120.00
2024-01-06T02:52:45.101Z,120.00
2024-01-06T02:53:48.110Z,120.00
2024-01-06T02:54:51.214Z,120.00
2024-01-06T02:55:54.234Z,119.50
2024-01-06T02:56:57.211Z,119.00
2024-01-06T02:58:00.232Z,118.17
2024-01-06T02:59:03.271Z,117.50
2024-01-06T03:00:07.814Z,117.17
2024-01-06T03:01:13.205Z,118.00
2024-01-06T03:02:16.319Z,118.00
2024-01-06T03:03:19.948Z,118.00
2024-01-06T03:04:23.104Z,117.50
2024-01-06T03:05:26.531Z,117.00
2024-01-06T03:06:29.689Z,117.00
2024-01-06T03:07:32.698Z,117.00
2024-01-06T03:08:35.911Z,117.00
2024-01-06T03:09:40.080Z,116.67
2024-01-06T03:10:43.132Z,115.50
2024-01-06T03:11:46.898Z,115.50
2024-01-06T03:12:50.132Z,116.50
2024-01-06T03:13:53.153Z,117.00
2024-01-06T03:14:56.123Z,116.50
2024-01-06T03:15:59.186Z,116.00
2024-01-06T03:17:02.396Z,116.00
2024-01-06T03:18:05.576Z,116.00
2024-01-06T03:19:08.823Z,116.00
2024-01-06T03:20:11.996Z,116.33
2024-01-06T03:21:21.663Z,116.00
2024-01-06T03:22:24.824Z,116.00
2024-01-06T03:23:27.836Z,115.00
2024-01-06T03:24:32.054Z,114.33
2024-01-06T03:25:35.072Z,114.00
2024-01-06T03:26:38.058Z,114.00
2024-01-06T03:27:41.145Z,113.50
2024-01-06T03:28:44.162Z,114.17
2024-01-06T03:29:47.752Z,121.00
2024-01-06T03:30:50.827Z,125.67
2024-01-06T03:31:53.884Z,126.67
2024-01-06T03:32:57.055Z,125.67
2024-01-06T03:34:00.298Z,125.00
2024-01-06T03:35:03.386Z,124.17
2024-01-06T03:36:08.191Z,124.00
2024-01-06T03:37:11.216Z,123.50
2024-01-06T03:38:14.353Z,122.33
2024-01-06T03:39:17.421Z,121.00
2024-01-06T03:40:20.484Z,120.83
2024-01-06T03:41:23.474Z,120.00
2024-01-06T03:42:26.520Z,120.00
2024-01-06T03:43:29.541Z,119.17
2024-01-06T03:44:34.871Z,118.17
2024-01-06T03:45:38.036Z,117.83
2024-01-06T03:46:41.073Z,116.67
2024-01-06T03:47:44.115Z,115.83
2024-01-06T03:48:47.277Z,115.00
2024-01-06T03:49:50.488Z,114.00
2024-01-06T03:50:53.519Z,113.00
2024-01-06T03:51:56.637Z,111.00
2024-01-06T03:52:59.683Z,109.67
2024-01-06T03:54:02.674Z,108.50
2024-01-06T03:55:06.925Z,108.00
2024-01-06T03:56:10.047Z,108.00
2024-01-06T03:57:13.051Z,108.00
2024-01-06T03:58:16.058Z,108.00
2024-01-06T03:59:19.049Z,108.00
2024-01-06T04:00:22.104Z,107.33
2024-01-06T04:01:25.138Z,107.00
2024-01-06T04:02:28.114Z,107.00
2024-01-06T04:03:31.199Z,107.00
2024-01-06T04:04:34.282Z,107.00
2024-01-06T04:05:37.304Z,107.00
2024-01-06T04:06:40.354Z,107.00
2024-01-06T04:07:43.359Z,107.00
2024-01-06T04:08:46.416Z,107.00
2024-01-06T04:09:49.464Z,106.17
2024-01-06T04:10:52.449Z,105.17
2024-01-06T04:11:55.444Z,105.00
2024-01-06T04:12:58.487Z,105.00
2024-01-06T04:14:01.500Z,105.00
2024-01-06T04:15:04.945Z,105.00
2024-01-06T04:16:07.983Z,105.00
2024-01-06T04:17:10.963Z,105.00
2024-01-06T04:18:14.120Z,105.00
2024-01-06T04:19:17.263Z,105.50
2024-01-06T04:20:20.284Z,106.17
2024-01-06T04:21:23.648Z,107.00
2024-01-06T04:22:26.823Z,107.00
2024-01-06T04:23:29.862Z,107.00
2024-01-06T04:24:35.771Z,107.00
2024-01-06T04:25:38.928Z,107.67
2024-01-06T04:26:46.242Z,108.00
2024-01-06T04:27:50.131Z,108.00
2024-01-06T04:28:53.191Z,108.00
2024-01-06T04:29:56.200Z,109.00
2024-01-06T04:30:59.281Z,112.17
2024-01-06T04:32:02.465Z,121.67
2024-01-06T04:33:05.652Z,122.83
2024-01-06T04:34:08.848Z,121.83
2024-01-06T04:35:12.219Z,123.00
2024-01-06T04:36:15.221Z,123.00
2024-01-06T04:37:18.216Z,122.00
2024-01-06T04:38:21.227Z,121.83
2024-01-06T04:39:25.192Z,121.00
2024-01-06T04:40:28.855Z,123.67
2024-01-06T04:41:32.250Z,138.17
2024-01-06T04:42:35.497Z,139.50
2024-01-06T04:43:38.494Z,135.50
2024-01-06T04:44:41.499Z,132.00
2024-01-06T04:45:44.549Z,125.00
2024-01-06T04:46:47.582Z,120.00
2024-01-06T04:47:50.784Z,117.00
2024-01-06T04:48:53.913Z,116.00
2024-01-06T04:49:56.979Z,115.17
2024-01-06T04:51:00.154Z,114.17
2024-01-06T04:52:03.130Z,112.83
2024-01-06T04:53:06.140Z,112.00
2024-01-06T04:54:09.149Z,112.00
2024-01-06T04:55:12.164Z,112.00
2024-01-06T04:56:15.165Z,112.50
2024-01-06T04:57:18.300Z,115.33
2024-01-06T04:58:21.308Z,116.00
2024-01-06T04:59:24.272Z,116.00
2024-01-06T05:00:27.456Z,116.00
2024-01-06T05:01:30.633Z,116.00
2024-01-06T05:02:34.100Z,116.00
2024-01-06T05:03:37.160Z,116.50
2024-01-06T05:04:40.184Z,117.00
2024-01-06T05:05:43.685Z,117.00
2024-01-06T05:06:46.843Z,117.00
2024-01-06T05:07:49.899Z,116.83
2024-01-06T05:08:52.883Z,116.00
2024-01-06T05:09:55.917Z,115.00
2024-01-06T05:10:58.960Z,115.00
2024-01-06T05:12:01.947Z,115.00
2024-01-06T05:13:05.114Z,114.50
2024-01-06T05:14:08.153Z,114.00
2024-01-06T05:15:11.128Z,114.00
2024-01-06T05:16:14.111Z,114.00
2024-01-06T05:17:17.097Z,114.33
2024-01-06T05:18:20.162Z,115.00
2024-01-06T05:19:23.499Z,115.00
2024-01-06T05:20:26.647Z,115.17
2024-01-06T05:21:31.148Z,116.00
2024-01-06T05:22:34.168Z,116.00
2024-01-06T05:23:37.171Z,116.17
2024-01-06T05:24:40.166Z,116.83
2024-01-06T05:25:43.127Z,117.00
2024-01-06T05:26:46.180Z,117.00
2024-01-06T05:27:49.192Z,117.00
2024-01-06T05:28:53.221Z,117.00
2024-01-06T05:29:56.232Z,116.33
2024-01-06T05:30:59.280Z,116.00
2024-01-06T05:32:02.300Z,116.00
2024-01-06T05:33:05.742Z,116.00
2024-01-06T05:34:08.922Z,115.50
2024-01-06T05:35:12.007Z,114.17
2024-01-06T05:36:15.050Z,112.50
2024-01-06T05:37:18.064Z,111.00
2024-01-06T05:38:21.045Z,110.00
2024-01-06T05:39:24.061Z,110.00
2024-01-06T05:40:27.041Z,110.00
2024-01-06T05:41:30.033Z,110.00
2024-01-06T05:42:34.174Z,109.00
2024-01-06T05:43:37.266Z,108.00
2024-01-06T05:44:40.264Z,108.00
2024-01-06T05:45:43.334Z,108.00
2024-01-06T05:46:46.337Z,108.00
2024-01-06T05:47:49.436Z,107.17
2024-01-06T05:48:52.847Z,106.83
2024-01-06T05:49:55.982Z,106.00
2024-01-06T05:50:58.982Z,105.17
2024-01-06T05:52:01.995Z,104.33
2024-01-06T05:53:05.111Z,103.00
2024-01-06T05:54:08.097Z,102.17
2024-01-06T05:55:11.140Z,101.67
2024-01-06T05:56:26.937Z,101.00
2024-01-06T05:57:29.992Z,100.83
2024-01-06T05:58:32.984Z,99.67
2024-01-06T05:59:37.117Z,99.00
2024-01-06T06:00:40.190Z,98.67
2024-01-06T06:01:44.768Z,98.67
2024-01-06T06:02:47.820Z,99.00
2024-01-06T06:03:51.445Z,99.00
2024-01-06T06:04:54.771Z,99.00
2024-01-06T06:05:57.859Z,99.33
2024-01-06T06:07:02.512Z,100.00
2024-01-06T06:08:06.173Z,100.00
2024-01-06T06:09:10.336Z,100.00
2024-01-06T06:10:13.997Z,100.00
2024-01-06T06:11:17.882Z,100.00
2024-01-06T06:12:20.943Z,100.00
2024-01-06T06:13:23.988Z,100.50
2024-01-06T06:14:29.917Z,101.17
2024-01-06T06:15:33.941Z,102.17
2024-01-06T06:16:37.189Z,103.00
2024-01-06T06:17:41.389Z,103.67
2024-01-06T06:18:44.499Z,104.00
2024-01-06T06:19:47.793Z,104.17
2024-01-06T06:20:50.874Z,105.00
2024-01-06T06:21:54.010Z,105.17
2024-01-06T06:22:57.118Z,105.83
2024-01-06T06:24:00.110Z,106.00
2024-01-06T06:25:03.564Z,106.00
2024-01-06T06:26:10.701Z,107.33
2024-01-06T06:27:13.754Z,113.00
2024-01-06T06:28:17.027Z,114.67
2024-01-06T06:29:22.025Z,114.00
2024-01-06T06:30:25.295Z,114.00
2024-01-06T06:31:28.482Z,114.67
2024-01-06T06:32:31.587Z,114.83
2024-01-06T06:33:35.247Z,114.33
2024-01-06T06:34:38.331Z,112.83
2024-01-06T06:35:41.333Z,111.17
2024-01-06T06:36:44.413Z,109.50
2024-01-06T06:37:47.438Z,108.83
2024-01-06T06:38:50.436Z,108.00
2024-01-06T06:39:53.562Z,108.00
2024-01-06T06:40:57.573Z,108.67
2024-01-06T06:42:00.593Z,108.00
2024-01-06T06:43:03.599Z,108.00
2024-01-06T06:44:06.657Z,108.17
2024-01-06T06:45:12.944Z,109.00
2024-01-06T06:46:16.493Z,111.50
2024-01-06T06:47:20.560Z,113.33
2024-01-06T06:48:24.002Z,113.00
2024-01-06T06:49:27.142Z,114.33
2024-01-06T06:50:30.545Z,116.50
2024-01-06T06:51:33.588Z,119.33
2024-01-06T06:52:36.596Z,133.00
2024-01-06T06:53:39.597Z,133.17
2024-01-06T06:54:42.794Z,130.00
2024-01-06T06:55:45.818Z,126.33
2024-01-06T06:56:48.807Z,120.00
2024-01-06T06:57:51.876Z,115.67
2024-01-06T06:58:54.859Z,113.83
2024-01-06T06:59:57.895Z,112.67
2024-01-06T07:01:01.043Z,113.00
2024-01-06T07:02:04.393Z,112.33
2024-01-06T07:03:07.446Z,112.00
2024-01-06T07:04:10.512Z,112.00
2024-01-06T07:05:13.656Z,111.83
2024-01-06T07:06:16.921Z,111.00
2024-01-06T07:07:19.956Z,111.00
2024-01-06T07:08:22.965Z,110.33
2024-01-06T07:09:25.979Z,110.00
2024-01-06T07:10:28.993Z,110.00
2024-01-06T07:11:32.120Z,110.00
2024-01-06T07:12:35.182Z,110.00
2024-01-06T07:13:38.613Z,109.17
2024-01-06T07:14:41.622Z,109.00
2024-01-06T07:15:44.694Z,108.67
2024-01-06T07:16:47.683Z,108.00
2024-01-06T07:17:50.774Z,108.00
2024-01-06T07:18:54.094Z,108.00
2024-01-06T07:19:57.268Z,107.17
2024-01-06T07:21:00.301Z,107.00
2024-01-06T07:22:06.192Z,106.83
2024-01-06T07:23:10.028Z,105.67
2024-01-06T07:24:13.081Z,104.33
2024-01-06T07:25:16.130Z,102.33
2024-01-06T07:26:19.139Z,100.33
2024-01-06T07:27:22.153Z,101.00
2024-01-06T07:28:26.357Z,101.00
2024-01-06T07:29:29.347Z,101.00
2024-01-06T07:30:32.722Z,101.00
2024-01-06T07:31:36.065Z,101.17
2024-01-06T07:32:39.191Z,102.50
2024-01-06T07:33:42.351Z,103.33
2024-01-06T07:34:45.453Z,104.00
2024-01-06T07:35:48.486Z,104.50
2024-01-06T07:36:51.520Z,105.83
2024-01-06T07:37:54.533Z,106.83
2024-01-06T07:38:57.576Z,107.83
2024-01-06T07:40:00.655Z,108.00
2024-01-06T07:41:05.723Z,107.83
2024-01-06T07:42:08.744Z,108.00
2024-01-06T07:43:11.750Z,108.00
2024-01-06T07:44:14.763Z,108.33
2024-01-06T07:45:17.868Z,109.00
2024-01-06T07:46:21.020Z,110.00
2024-01-06T07:47:24.003Z,110.00
2024-01-06T07:48:27.111Z,109.17
2024-01-06T07:49:30.337Z,108.50
2024-01-06T07:50:33.448Z,107.50
2024-01-06T07:51:36.491Z,107.00
2024-01-06T07:52:39.541Z,107.00
2024-01-06T07:53:43.529Z,107.67
2024-01-06T07:54:46.540Z,108.83
2024-01-06T07:55:49.552Z,111.17
2024-01-06T07:56:52.543Z,112.00
2024-01-06T07:57:56.162Z,111.17
2024-01-06T07:58:59.384Z,110.00
2024-01-06T08:00:04.481Z,110.00
2024-01-06T08:01:09.233Z,110.00
2024-01-06T08:02:12.323Z,109.00
2024-01-06T08:03:15.524Z,109.00
2024-01-06T08:04:18.622Z,109.00
2024-01-06T08:05:21.747Z,108.00
2024-01-06T08:06:25.028Z,108.67
2024-01-06T08:07:28.085Z,108.83
2024-01-06T08:08:31.107Z,108.00
2024-01-06T08:09:34.257Z,107.17
2024-01-06T08:10:37.328Z,107.00
2024-01-06T08:11:40.321Z,107.00
2024-01-06T08:12:43.336Z,107.00
2024-01-06T08:13:46.381Z,107.00
2024-01-06T08:14:49.368Z,106.67
2024-01-06T08:15:52.671Z,107.00
2024-01-06T08:16:55.814Z,107.50
2024-01-06T08:17:58.857Z,108.00
2024-01-06T08:19:02.088Z,108.00
2024-01-06T08:20:06.195Z,107.50
2024-01-06T08:21:09.178Z,106.83
2024-01-06T08:22:12.168Z,106.00
2024-01-06T08:23:15.415Z,106.00
2024-01-06T08:24:18.490Z,106.00
2024-01-06T08:25:21.519Z,105.67
2024-01-06T08:26:24.512Z,105.00
2024-01-06T08:27:27.545Z,105.00
2024-01-06T08:28:30.931Z,105.00
2024-01-06T08:29:33.938Z,105.33
2024-01-06T08:30:37.104Z,107.83
2024-01-06T08:31:40.350Z,109.33
2024-01-06T08:32:43.441Z,110.00
2024-01-06T08:33:46.682Z,110.00
2024-01-06T08:34:49.904Z,110.83
2024-01-06T08:35:52.998Z,111.33
2024-01-06T08:36:56.070Z,112.00
2024-01-06T08:37:59.187Z,111.17
2024-01-06T08:39:02.236Z,110.17
2024-01-06T08:40:06.162Z,108.33
2024-01-06T08:41:09.242Z,107.83
2024-01-06T08:42:12.290Z,106.00
2024-01-06T08:43:15.511Z,105.33
2024-01-06T08:44:18.523Z,106.83
2024-01-06T08:45:21.648Z,107.00
2024-01-06T08:46:24.655Z,106.67
2024-01-06T08:47:27.658Z,105.00
2024-01-06T08:48:34.485Z,104.00
2024-01-06T08:49:38.892Z,103.50
2024-01-06T08:50:42.022Z,102.00
2024-01-06T08:51:45.195Z,101.17
2024-01-06T08:52:48.232Z,100.17
2024-01-06T08:53:51.338Z,100.00
2024-01-06T08:54:55.197Z,99.67
2024-01-06T08:55:58.336Z,99.17
2024-01-06T08:57:01.500Z,99.00
2024-01-06T08:58:04.668Z,99.00
2024-01-06T08:59:07.707Z,99.00
2024-01-06T09:00:12.108Z,99.00
2024-01-06T09:01:15.287Z,99.00
2024-01-06T09:02:18.346Z,99.00
2024-01-06T09:03:27.171Z,99.00
2024-01-06T09:04:30.649Z,99.83
2024-01-06T09:05:35.159Z,99.33
2024-01-06T09:06:38.396Z,100.00
2024-01-06T09:07:41.429Z,100.00
2024-01-06T09:08:44.426Z,100.00
2024-01-06T09:09:47.449Z,99.67
2024-01-06T09:10:52.663Z,99.00
2024-01-06T09:11:55.676Z,99.00
2024-01-06T09:12:58.700Z,99.00
2024-01-06T09:14:02.042Z,99.00
2024-01-06T09:15:05.556Z,98.50
2024-01-06T09:16:08.724Z,99.00
2024-01-06T09:17:11.853Z,99.50
2024-01-06T09:18:15.150Z,100.00
2024-01-06T09:19:18.489Z,100.00
2024-01-06T09:20:26.107Z,101.33
2024-01-06T09:21:29.165Z,100.67
2024-01-06T09:22:33.517Z,98.33
2024-01-06T09:23:36.524Z,98.00
2024-01-06T09:24:39.525Z,98.00
2024-01-06T09:25:42.523Z,97.17
2024-01-06T09:26:45.593Z,95.50
2024-01-06T09:27:48.607Z,95.00
2024-01-06T09:28:51.621Z,99.00
2024-01-06T09:29:54.696Z,114.67
2024-01-06T09:30:57.755Z,122.83
2024-01-06T09:32:00.836Z,134.83
2024-01-06T09:33:04.094Z,125.33
2024-01-06T09:34:11.704Z,121.17
2024-01-06T09:35:15.887Z,118.83
2024-01-06T09:36:19.633Z,115.00
2024-01-06T09:37:22.969Z,112.00
2024-01-06T09:38:25.958Z,107.17
2024-01-06T09:39:28.984Z,104.17
2024-01-06T09:40:33.723Z,103.17
2024-01-06T09:41:36.875Z,103.00
2024-01-06T09:42:39.938Z,102.17
2024-01-06T09:43:43.005Z,102.17
2024-01-06T09:44:46.000Z,101.67
2024-01-06T09:46:08.509Z,101.00
2024-01-06T09:47:13.765Z,100.67
2024-01-06T09:48:19.193Z,100.50
2024-01-06T09:49:25.733Z,101.00
2024-01-06T09:50:29.757Z,101.33
2024-01-06T09:51:32.833Z,102.00
2024-01-06T09:52:45.304Z,102.00
2024-01-06T09:54:00.460Z,102.00
2024-01-06T09:55:06.912Z,102.00
2024-01-06T09:56:11.172Z,102.00
2024-01-06T09:57:14.244Z,102.67
2024-01-06T09:58:17.402Z,103.67
2024-01-06T09:59:21.346Z,104.00
2024-01-06T10:00:24.695Z,102.50
2024-01-06T10:01:27.789Z,102.33
2024-01-06T10:02:32.834Z,104.50
2024-01-06T10:03:38.131Z,108.00
2024-01-06T10:04:41.586Z,113.83
2024-01-06T10:05:44.760Z,113.17
2024-01-06T10:06:47.848Z,112.00
2024-01-06T10:07:51.239Z,111.50
2024-01-06T10:08:54.638Z,109.00
2024-01-06T10:09:57.766Z,107.00
2024-01-06T10:11:02.136Z,105.17
2024-01-06T10:12:05.705Z,105.00
2024-01-06T10:13:08.781Z,105.00
2024-01-06T10:14:13.115Z,104.00
2024-01-06T10:15:16.150Z,103.17
2024-01-06T10:16:20.218Z,103.00
2024-01-06T10:17:23.856Z,103.00
2024-01-06T10:18:30.906Z,104.00
2024-01-06T10:19:34.233Z,104.00
2024-01-06T10:20:37.596Z,104.33
2024-01-06T10:21:41.173Z,105.00
2024-01-06T10:22:45.687Z,106.50
2024-01-06T10:23:49.899Z,109.17
2024-01-06T10:24:52.966Z,110.00
2024-01-06T10:25:58.406Z,110.00
2024-01-06T10:27:02.572Z,110.00
2024-01-06T10:28:05.844Z,110.00
2024-01-06T10:29:08.824Z,110.00
2024-01-06T10:30:15.729Z,111.50
2024-01-06T10:31:19.602Z,112.33
2024-01-06T10:32:22.867Z,113.00
2024-01-06T10:33:27.946Z,114.00
2024-01-06T10:34:33.702Z,114.00
2024-01-06T10:35:37.690Z,115.50
2024-01-06T10:36:40.946Z,118.50
2024-01-06T10:37:43.981Z,119.83
2024-01-06T10:38:47.099Z,119.00
2024-01-06T10:39:50.130Z,119.00
2024-01-06T10:41:08.290Z,118.00
2024-01-06T10:42:13.972Z,117.83
2024-01-06T10:43:18.551Z,117.17
2024-01-06T10:44:22.956Z,117.00
2024-01-06T10:45:26.024Z,118.33
2024-01-06T10:46:31.314Z,129.17
2024-01-06T10:47:39.221Z,128.00
2024-01-06T10:48:45.941Z,127.00
2024-01-06T10:49:54.692Z,127.33
2024-01-06T10:51:01.178Z,127.00
2024-01-06T10:52:07.372Z,127.00
2024-01-06T10:53:11.449Z,127.00
2024-01-06T10:54:15.737Z,126.17
2024-01-06T10:55:21.617Z,126.00
2024-01-06T10:56:26.487Z,125.50
2024-01-06T10:57:33.008Z,123.50
2024-01-06T10:58:44.387Z,121.33
2024-01-06T10:59:52.412Z,120.00
2024-01-06T11:00:58.358Z,120.00
2024-01-06T11:02:03.691Z,119.50
2024-01-06T11:03:07.643Z,119.17
2024-01-06T11:04:12.146Z,141.67
2024-01-06T11:05:16.500Z,145.67
2024-01-06T11:06:21.214Z,138.17
2024-01-06T11:07:27.254Z,135.00
2024-01-06T11:08:32.904Z,128.67
2024-01-06T11:09:41.123Z,125.17
2024-01-06T11:10:44.472Z,124.33
2024-01-06T11:11:48.257Z,123.83
2024-01-06T11:13:21.472Z,121.67
2024-01-06T11:14:29.321Z,117.00
2024-01-06T11:15:45.022Z,115.00
2024-01-06T11:16:48.298Z,114.50
2024-01-06T11:17:59.385Z,112.17
2024-01-06T11:19:03.196Z,110.67
2024-01-06T11:20:07.831Z,111.00
2024-01-06T11:21:26.621Z,111.00
2024-01-06T11:22:36.832Z,112.00
2024-01-06T11:23:40.070Z,112.00
2024-01-06T11:24:52.021Z,112.00
2024-01-06T11:25:55.050Z,112.00
2024-01-06T11:26:58.707Z,111.67
2024-01-06T11:28:09.531Z,109.83
2024-01-06T11:29:13.110Z,108.00
2024-01-06T11:30:27.620Z,107.17
2024-01-06T11:31:34.074Z,107.83
2024-01-06T11:32:43.467Z,107.67
2024-01-06T11:33:50.547Z,107.17
2024-01-06T11:34:57.551Z,107.00
2024-01-06T11:36:03.236Z,107.00
2024-01-06T11:37:10.494Z,108.00
2024-01-06T11:38:15.182Z,107.33
2024-01-06T11:39:42.621Z,107.00
2024-01-06T11:40:45.693Z,106.00
2024-01-06T11:41:53.146Z,107.00
2024-01-06T11:43:10.693Z,107.00
2024-01-06T11:44:13.718Z,107.00
2024-01-06T11:45:16.780Z,107.50
2024-01-06T11:46:20.596Z,106.00
2024-01-06T11:47:24.997Z,106.33
2024-01-06T11:48:33.080Z,107.50
2024-01-06T11:49:36.332Z,108.83
2024-01-06T11:50:41.038Z,110.50
2024-01-06T11:51:44.588Z,111.33
2024-01-06T11:52:47.743Z,112.00
2024-01-06T11:53:50.902Z,112.00
2024-01-06T11:54:56.278Z,112.33
2024-01-06T11:56:01.591Z,113.50
2024-01-06T11:57:05.081Z,115.00
2024-01-06T11:58:08.182Z,114.33
2024-01-06T11:59:11.240Z,113.83
2024-01-06T12:00:17.648Z,113.00
2024-01-06T12:01:20.771Z,113.00
2024-01-06T12:02:23.844Z,112.33
2024-01-06T12:03:27.809Z,111.67
2024-01-06T12:04:31.075Z,110.00
2024-01-06T12:05:34.234Z,108.50
2024-01-06T12:06:37.282Z,107.00
2024-01-06T12:07:43.810Z,106.67
2024-01-06T12:08:46.786Z,106.00
2024-01-06T12:10:03.311Z,105.33
2024-01-06T12:11:06.781Z,105.00
2024-01-06T12:12:16.170Z,105.00
2024-01-06T12:13:19.180Z,105.00
2024-01-06T12:14:22.172Z,105.00
2024-01-06T12:15:25.277Z,103.83
2024-01-06T12:16:28.610Z,102.33
2024-01-06T12:17:32.730Z,101.33
2024-01-06T12:18:35.857Z,102.33
2024-01-06T12:19:40.782Z,103.00
2024-01-06T12:20:46.349Z,103.00
2024-01-06T12:21:49.344Z,104.33
2024-01-06T12:22:56.586Z,105.67
2024-01-06T12:24:19.495Z,107.00
2024-01-06T12:25:27.277Z,107.67
2024-01-06T12:26:30.711Z,108.00
2024-01-06T12:27:34.161Z,108.00
2024-01-06T12:28:37.534Z,109.00
2024-01-06T12:29:42.574Z,110.00
2024-01-06T12:30:46.027Z,109.33
2024-01-06T12:31:49.243Z,109.00
2024-01-06T12:32:55.373Z,107.17
2024-01-06T12:33:59.664Z,105.67
2024-01-06T12:35:02.714Z,105.00
2024-01-06T12:36:14.232Z,105.83
2024-01-06T12:37:25.537Z,109.67
2024-01-06T12:38:28.986Z,111.33
2024-01-06T12:39:32.479Z,113.00
2024-01-06T12:40:42.218Z,113.67
2024-01-06T12:41:45.965Z,114.00
2024-01-06T12:42:49.141Z,112.83
2024-01-06T12:43:52.234Z,110.50
2024-01-06T12:44:55.302Z,109.50
2024-01-06T12:45:59.303Z,108.33
2024-01-06T12:47:02.392Z,106.83
2024-01-06T12:48:05.988Z,103.00
2024-01-06T12:49:09.814Z,100.33
2024-01-06T12:50:13.096Z,99.50
2024-01-06T12:51:16.172Z,99.00
2024-01-06T12:52:19.217Z,100.00
2024-01-06T12:53:22.207Z,100.33
2024-01-06T12:54:25.209Z,101.00
2024-01-06T12:55:28.200Z,102.50
2024-01-06T12:56:31.294Z,106.00
2024-01-06T12:57:35.152Z,109.17
2024-01-06T12:58:38.227Z,111.17
2024-01-06T12:59:41.232Z,114.67
2024-01-06T13:00:44.324Z,116.00
2024-01-06T13:01:47.432Z,116.67
2024-01-06T13:02:50.503Z,115.67
2024-01-06T13:03:55.166Z,113.67
2024-01-06T13:04:58.350Z,113.00
2024-01-06T13:06:02.807Z,113.00
2024-01-06T13:07:06.134Z,113.00
2024-01-06T13:08:09.230Z,111.67
2024-01-06T13:09:17.601Z,111.00
2024-01-06T13:10:20.858Z,131.17
2024-01-06T13:11:24.211Z,148.67
2024-01-06T13:12:28.204Z,142.00
2024-01-06T13:13:32.716Z,138.67
2024-01-06T13:14:36.974Z,135.00
2024-01-06T13:15:40.240Z,133.67
2024-01-06T13:16:43.341Z,132.33
2024-01-06T13:17:46.435Z,131.17
2024-01-06T13:18:52.443Z,128.83